Time;durP1;ratioP1;P1;durP2;ratioP2;P2;SDS_P1;SDS_P2;PMS_P1;PMS_P2;Temp;Humidity;BMP_temperature;BMP_pressure;BME280_temperature;BME280_humidity;BME280_pressure;Samples;Min_cycle;Max_cycle;Signal;HPM_P1;HPM_P2
2023/08/12 00:03:55;;;;;;;3.10;2.80;;;22.60;35.00;;;;;;10263402;28;20227;-70
2023/08/12 00:08:59;;;;;;;3.67;2.50;;;22.60;34.70;;;;;;10259736;28;20740;-70
2023/08/12 00:14:03;;;;;;;2.53;2.33;;;22.50;34.60;;;;;;10263133;28;20235;-70
2023/08/12 00:19:08;;;;;;;3.40;2.73;;;22.40;35.20;;;;;;10266450;28;20239;-70
2023/08/12 00:24:11;;;;;;;2.47;2.30;;;22.40;35.00;;;;;;10258869;28;20318;-71
2023/08/12 00:29:16;;;;;;;2.80;2.60;;;22.40;35.10;;;;;;10263516;28;20264;-71
2023/08/12 00:34:19;;;;;;;2.70;2.40;;;22.30;35.20;;;;;;10266270;28;20327;-71
2023/08/12 00:39:23;;;;;;;2.47;2.37;;;22.30;35.00;;;;;;10264374;28;20302;-71
2023/08/12 00:44:28;;;;;;;2.73;2.53;;;22.20;35.00;;;;;;10263495;28;21020;-71
2023/08/12 00:49:32;;;;;;;2.67;2.47;;;22.20;35.30;;;;;;10258965;28;20267;-70
2023/08/12 00:54:35;;;;;;;3.60;2.50;;;22.20;35.40;;;;;;10264396;28;20323;-70
2023/08/12 00:59:42;;;;;;;2.70;2.50;;;22.10;35.00;;;;;;10262119;28;20245;-70
2023/08/12 01:04:45;;;;;;;2.57;2.37;;;22.10;35.40;;;;;;10259174;28;20230;-70
2023/08/12 01:09:49;;;;;;;2.10;2.00;;;22.10;35.20;;;;;;10255932;28;20685;-71
2023/08/12 01:14:59;;;;;;;2.40;2.20;;;22.10;35.10;;;;;;10260174;28;20237;-70
2023/08/12 01:20:08;;;;;;;2.63;2.30;;;22.10;35.60;;;;;;10256909;28;20242;-70
2023/08/12 01:25:12;;;;;;;1.73;1.63;;;22.10;35.00;;;;;;10260939;28;20900;-70
2023/08/12 01:30:16;;;;;;;2.80;2.60;;;22.00;35.10;;;;;;10263752;28;20256;-70
2023/08/12 01:35:24;;;;;;;2.40;2.30;;;22.00;35.00;;;;;;10261673;28;20259;-71
2023/08/12 01:40:30;;;;;;;2.50;2.20;;;21.90;35.20;;;;;;10255124;28;20239;-71
2023/08/12 01:45:33;;;;;;;2.27;2.03;;;21.80;35.50;;;;;;10260727;28;20294;-70
2023/08/12 01:50:36;;;;;;;2.13;2.03;;;21.80;35.10;;;;;;10266034;28;20235;-71
2023/08/12 01:55:45;;;;;;;2.27;2.10;;;21.70;35.10;;;;;;10259327;28;20586;-70
2023/08/12 02:00:48;;;;;;;2.60;2.40;;;21.70;35.60;;;;;;10258348;28;20238;-70
2023/08/12 02:05:51;;;;;;;2.30;2.07;;;21.60;35.30;;;;;;10255875;28;20331;-70
2023/08/12 02:10:56;;;;;;;2.80;2.57;;;21.50;35.20;;;;;;10256545;28;20235;-70
2023/08/12 02:15:59;;;;;;;2.40;2.20;;;21.40;35.60;;;;;;10262999;28;20311;-71
2023/08/12 02:21:02;;;;;;;2.83;2.63;;;21.40;35.30;;;;;;10262105;28;20234;-70
2023/08/12 02:26:07;;;;;;;2.63;2.43;;;21.30;35.50;;;;;;10261180;28;20238;-71
2023/08/12 02:31:10;;;;;;;2.33;2.13;;;21.30;35.80;;;;;;10257503;28;20290;-70
2023/08/12 02:36:13;;;;;;;2.70;2.50;;;21.20;35.50;;;;;;10253814;28;20243;-70
2023/08/12 02:41:18;;;;;;;3.07;2.37;;;21.20;35.50;;;;;;10257376;28;20295;-71
2023/08/12 02:46:21;;;;;;;3.77;2.67;;;21.10;35.70;;;;;;10263951;28;20231;-70
2023/08/12 02:51:24;;;;;;;3.17;2.60;;;21.00;35.60;;;;;;10259526;28;20287;-71
2023/08/12 02:56:29;;;;;;;2.70;2.50;;;20.90;35.80;;;;;;10274376;28;20258;-71
2023/08/12 03:01:32;;;;;;;2.47;2.27;;;20.70;36.10;;;;;;10266189;28;20242;-70
2023/08/12 03:06:35;;;;;;;2.50;2.40;;;20.70;35.90;;;;;;10267250;28;20228;-70
2023/08/12 03:11:40;;;;;;;2.80;2.60;;;20.50;35.80;;;;;;10268127;28;20793;-71
2023/08/12 03:16:43;;;;;;;2.20;2.10;;;20.40;36.60;;;;;;10268275;28;20248;-71
2023/08/12 03:21:46;;;;;;;2.77;2.57;;;20.40;35.90;;;;;;10268121;28;20243;-70
2023/08/12 03:26:51;;;;;;;2.60;2.40;;;20.20;36.20;;;;;;10266978;28;20717;-70
2023/08/12 03:31:54;;;;;;;2.67;2.37;;;20.10;37.30;;;;;;10269444;28;20380;-70
2023/08/12 03:36:57;;;;;;;2.60;2.40;;;20.10;36.60;;;;;;10264998;28;20231;-71
2023/08/12 03:42:02;;;;;;;2.80;2.40;;;20.00;36.50;;;;;;10260535;28;20242;-71
2023/08/12 03:47:05;;;;;;;3.50;2.70;;;20.00;36.50;;;;;;10266456;28;20751;-70
2023/08/12 03:52:08;;;;;;;3.30;2.30;;;20.00;36.50;;;;;;10261490;28;21004;-71
2023/08/12 03:57:13;;;;;;;2.20;2.10;;;19.90;36.40;;;;;;10257848;28;20248;-71
2023/08/12 04:02:16;;;;;;;2.63;2.43;;;19.90;36.50;;;;;;10267935;28;20231;-70
2023/08/12 04:07:20;;;;;;;2.20;2.00;;;19.90;36.40;;;;;;10267185;28;20934;-71
2023/08/12 04:12:24;;;;;;;3.07;2.30;;;19.80;36.30;;;;;;10267220;28;20240;-70
2023/08/12 04:17:27;;;;;;;2.77;2.57;;;19.80;36.90;;;;;;10267431;28;20249;-70
2023/08/12 04:22:31;;;;;;;2.87;2.10;;;19.80;36.40;;;;;;10264574;28;20245;-70
2023/08/12 04:27:35;;;;;;;2.70;2.50;;;19.70;36.20;;;;;;10262783;28;20246;-70
2023/08/12 04:32:38;;;;;;;2.67;2.47;;;19.60;37.10;;;;;;10268227;28;20235;-71
2023/08/12 04:37:41;;;;;;;3.63;3.03;;;19.60;36.90;;;;;;10261477;28;20239;-70
2023/08/12 04:42:46;;;;;;;2.97;2.77;;;19.50;37.00;;;;;;10265066;28;20326;-71
2023/08/12 04:47:49;;;;;;;2.73;2.53;;;19.50;37.80;;;;;;10267194;28;20649;-70
2023/08/12 04:52:52;;;;;;;3.03;2.30;;;19.40;37.40;;;;;;10261771;28;20231;-70
2023/08/12 04:57:57;;;;;;;2.70;2.50;;;19.40;37.70;;;;;;10259873;28;20245;-71
2023/08/12 05:03:00;;;;;;;2.27;2.17;;;19.40;38.30;;;;;;10261832;28;20282;-70
2023/08/12 05:08:04;;;;;;;3.47;2.30;;;19.40;38.10;;;;;;10261936;28;20570;-70
2023/08/12 05:13:09;;;;;;;3.00;2.70;;;19.40;38.20;;;;;;10257404;28;20323;-70
2023/08/12 05:18:12;;;;;;;2.60;2.40;;;19.30;38.90;;;;;;10264681;28;20586;-70
2023/08/12 05:23:15;;;;;;;2.60;2.40;;;19.40;38.70;;;;;;10261934;28;20265;-70
2023/08/12 05:28:20;;;;;;;2.60;2.40;;;19.40;38.90;;;;;;10262698;28;20257;-70
2023/08/12 05:33:23;;;;;;;3.00;2.80;;;19.50;39.80;;;;;;10258165;28;20307;-70
2023/08/12 05:38:27;;;;;;;3.70;2.90;;;19.60;40.30;;;;;;10269996;28;20295;-70
2023/08/12 05:43:31;;;;;;;4.17;2.47;;;19.70;39.70;;;;;;10260401;28;20238;-70
2023/08/12 05:48:34;;;;;;;3.33;2.60;;;19.80;40.60;;;;;;10257823;28;20232;-71
2023/08/12 05:53:37;;;;;;;2.80;2.60;;;19.90;40.20;;;;;;10261700;28;20223;-71
2023/08/12 05:58:42;;;;;;;3.83;3.43;;;20.00;40.50;;;;;;10258977;28;20243;-70
2023/08/12 06:03:45;;;;;;;3.27;2.97;;;20.10;41.30;;;;;;10259215;28;20287;-70
2023/08/12 06:08:48;;;;;;;4.07;3.43;;;20.20;40.80;;;;;;10256643;28;20236;-71
2023/08/12 06:13:53;;;;;;;3.70;3.40;;;20.40;41.20;;;;;;10261290;28;20238;-70
2023/08/12 06:18:56;;;;;;;3.80;3.50;;;20.50;41.70;;;;;;10262078;28;20612;-70
2023/08/12 06:23:59;;;;;;;3.50;3.20;;;20.60;41.10;;;;;;10258399;28;20320;-71
2023/08/12 06:29:04;;;;;;;4.37;3.20;;;20.70;41.20;;;;;;10266816;28;20310;-71
2023/08/12 06:34:08;;;;;;;3.53;2.97;;;20.90;41.60;;;;;;10270941;28;20228;-71
2023/08/12 06:39:11;;;;;;;3.53;3.23;;;21.10;41.40;;;;;;10268054;28;20232;-71
2023/08/12 06:44:16;;;;;;;3.20;2.90;;;21.30;41.70;;;;;;10268617;28;20240;-71
2023/08/12 06:49:19;;;;;;;3.20;3.00;;;21.50;42.10;;;;;;10270827;28;20282;-71
2023/08/12 06:54:24;;;;;;;4.53;3.40;;;21.70;41.70;;;;;;10266077;28;20231;-71
2023/08/12 06:59:29;;;;;;;3.47;3.27;;;21.80;41.80;;;;;;10266658;28;20240;-71
2023/08/12 07:04:32;;;;;;;3.77;3.47;;;22.00;42.00;;;;;;10274374;28;20231;-71
2023/08/12 07:09:35;;;;;;;4.37;3.27;;;22.20;41.90;;;;;;10268196;28;20244;-71
2023/08/12 07:14:39;;;;;;;3.80;3.50;;;22.30;41.70;;;;;;10266479;28;20307;-70
2023/08/12 07:19:43;;;;;;;3.80;3.50;;;22.50;42.10;;;;;;10262979;28;20247;-71
2023/08/12 07:24:46;;;;;;;4.00;3.70;;;22.70;41.90;;;;;;10260686;28;20252;-71
2023/08/12 07:29:50;;;;;;;3.63;3.43;;;22.90;41.60;;;;;;10266278;28;20276;-70
2023/08/12 07:34:53;;;;;;;4.00;3.60;;;23.00;41.80;;;;;;10260603;28;20232;-71
2023/08/12 07:39:57;;;;;;;3.80;3.50;;;23.20;41.80;;;;;;10265458;28;20236;-70
2023/08/12 07:45:01;;;;;;;3.67;3.37;;;23.40;41.90;;;;;;10257801;28;20263;-71
2023/08/12 07:50:05;;;;;;;3.77;3.17;;;23.50;42.00;;;;;;10263316;28;20240;-71
2023/08/12 07:55:09;;;;;;;3.50;3.30;;;23.70;42.10;;;;;;10259878;28;20236;-70
2023/08/12 08:00:14;;;;;;;3.60;3.40;;;24.00;42.30;;;;;;10266378;28;20243;-71
2023/08/12 08:05:17;;;;;;;3.83;3.20;;;24.20;42.40;;;;;;10262257;28;20232;-73
2023/08/12 08:10:21;;;;;;;3.70;3.40;;;24.50;41.90;;;;;;10268606;28;20755;-71
2023/08/12 08:15:25;;;;;;;3.57;3.37;;;24.70;41.80;;;;;;10265206;28;20921;-70
2023/08/12 08:20:28;;;;;;;3.40;3.20;;;25.00;41.60;;;;;;10261464;28;20232;-71
2023/08/12 08:25:32;;;;;;;4.20;3.40;;;25.40;41.20;;;;;;10262162;28;20688;-71
2023/08/12 08:30:37;;;;;;;3.40;3.20;;;25.70;41.30;;;;;;10255855;28;20729;-70
2023/08/12 08:35:40;;;;;;;3.93;3.60;;;26.00;40.80;;;;;;10262691;28;20244;-70
2023/08/12 08:40:43;;;;;;;3.57;3.27;;;26.30;40.40;;;;;;10267760;28;20242;-71
2023/08/12 08:45:51;;;;;;;3.43;3.20;;;26.60;39.90;;;;;;10262581;28;20287;-71
2023/08/12 08:50:55;;;;;;;3.50;3.23;;;26.80;39.00;;;;;;10260922;28;20235;-70
2023/08/12 08:56:00;;;;;;;3.53;3.23;;;26.90;39.00;;;;;;10263352;28;20231;-71
2023/08/12 09:01:07;;;;;;;3.70;3.40;;;27.00;38.80;;;;;;10265566;28;20597;-71
2023/08/12 09:06:11;;;;;;;3.93;3.67;;;27.20;38.20;;;;;;10257306;28;20235;-71
2023/08/12 09:11:16;;;;;;;3.67;3.40;;;27.20;38.20;;;;;;10259383;28;20235;-71
2023/08/12 09:16:20;;;;;;;4.87;3.43;;;27.30;37.90;;;;;;10261937;28;20238;-71
2023/08/12 09:21:24;;;;;;;3.40;3.10;;;27.50;37.50;;;;;;10267329;28;20331;-71
2023/08/12 09:26:29;;;;;;;4.20;3.40;;;27.60;37.60;;;;;;10256507;28;20259;-71
2023/08/12 09:31:33;;;;;;;4.40;3.50;;;27.70;37.20;;;;;;10260852;28;20255;-71
2023/08/12 09:36:37;;;;;;;3.60;3.30;;;27.90;37.20;;;;;;10260590;28;20627;-71
2023/08/12 09:41:40;;;;;;;4.10;3.80;;;28.00;36.90;;;;;;10257865;28;20236;-71
2023/08/12 09:46:45;;;;;;;3.70;3.50;;;28.20;36.90;;;;;;10257559;28;20611;-71
2023/08/12 09:51:48;;;;;;;4.10;3.63;;;28.30;36.40;;;;;;10260502;28;20648;-71
2023/08/12 09:56:58;;;;;;;3.67;3.43;;;28.40;36.10;;;;;;10269775;28;20268;-71
2023/08/12 10:02:05;;;;;;;4.00;3.70;;;28.50;35.20;;;;;;10262387;28;20263;-71
2023/08/12 10:07:10;;;;;;;3.67;3.37;;;28.70;36.60;;;;;;10259321;28;20259;-71
2023/08/12 10:12:14;;;;;;;3.90;3.60;;;28.90;36.30;;;;;;10258127;28;20815;-71
2023/08/12 10:17:23;;;;;;;3.50;3.30;;;29.10;35.70;;;;;;10264489;28;20259;-71
2023/08/12 10:22:45;;;;;;;4.27;3.43;;;29.30;35.00;;;;;;10255491;28;20318;-71
2023/08/12 10:27:49;;;;;;;3.73;3.40;;;29.50;35.00;;;;;;10259922;28;20236;-71
2023/08/12 10:32:53;;;;;;;3.93;3.53;;;29.60;34.70;;;;;;10258439;28;20318;-71
2023/08/12 10:37:56;;;;;;;3.63;3.40;;;29.80;34.20;;;;;;10261428;28;20668;-71
2023/08/12 10:43:00;;;;;;;3.70;3.50;;;29.90;34.70;;;;;;10260422;28;20346;-71
2023/08/12 10:48:19;;;;;;;3.80;3.50;;;30.20;34.60;;;;;;10257658;28;20900;-71
2023/08/12 10:53:25;;;;;;;3.63;3.43;;;30.40;33.50;;;;;;10263286;28;20709;-71
2023/08/12 10:58:30;;;;;;;4.07;3.77;;;30.60;32.70;;;;;;10261211;28;20263;-71
2023/08/12 11:03:36;;;;;;;3.73;3.43;;;30.80;32.90;;;;;;10256933;28;20340;-71
2023/08/12 11:08:47;;;;;;;3.60;3.30;;;31.00;33.00;;;;;;10255406;28;20358;-71
2023/08/12 11:13:55;;;;;;;3.50;3.30;;;31.10;32.30;;;;;;10264588;28;20237;-71
2023/08/12 11:19:00;;;;;;;3.63;3.33;;;31.20;31.30;;;;;;10266302;28;20326;-71
2023/08/12 11:24:04;;;;;;;3.27;3.07;;;31.40;31.20;;;;;;10259995;28;20224;-71
2023/08/12 11:29:10;;;;;;;3.47;3.27;;;31.40;31.00;;;;;;10265031;28;20232;-71
2023/08/12 11:34:16;;;;;;;3.73;3.43;;;31.50;30.90;;;;;;10266559;28;20240;-71
2023/08/12 11:39:19;;;;;;;3.50;3.30;;;31.60;30.90;;;;;;10270055;28;20705;-71
2023/08/12 11:44:23;;;;;;;3.70;3.33;;;31.70;30.90;;;;;;10260089;28;20236;-71
2023/08/12 11:49:27;;;;;;;3.20;3.00;;;31.80;30.60;;;;;;10265681;28;20236;-71
2023/08/12 11:54:31;;;;;;;3.33;3.13;;;31.90;29.90;;;;;;10263351;28;20763;-71
2023/08/12 11:59:34;;;;;;;3.53;3.23;;;32.00;30.00;;;;;;10264170;28;20243;-71
2023/08/12 12:04:39;;;;;;;3.50;3.20;;;32.10;29.90;;;;;;10263770;28;20719;-71
2023/08/12 12:09:45;;;;;;;3.70;3.30;;;32.20;30.00;;;;;;10261227;28;20299;-71
2023/08/12 12:14:48;;;;;;;3.33;3.03;;;32.30;29.60;;;;;;10261180;28;20239;-71
2023/08/12 12:19:56;;;;;;;3.30;3.03;;;32.40;29.50;;;;;;10265446;28;20878;-71
2023/08/12 12:25:01;;;;;;;3.70;3.40;;;32.50;29.60;;;;;;10260568;28;20369;-71
2023/08/12 12:30:05;;;;;;;3.70;3.40;;;32.60;29.60;;;;;;10260535;28;20233;-71
2023/08/12 12:35:10;;;;;;;3.20;3.00;;;32.70;29.30;;;;;;10258930;28;20948;-71
2023/08/12 12:40:13;;;;;;;3.47;3.27;;;32.70;28.40;;;;;;10266592;28;20694;-70
2023/08/12 12:45:16;;;;;;;3.17;2.97;;;32.80;28.60;;;;;;10266175;28;20340;-71
2023/08/12 12:50:21;;;;;;;3.30;3.10;;;32.70;28.70;;;;;;10260007;28;20240;-71
2023/08/12 12:55:24;;;;;;;3.53;3.33;;;32.70;28.30;;;;;;10264464;28;20240;-71
2023/08/12 13:00:28;;;;;;;4.97;3.23;;;32.70;28.50;;;;;;10266123;28;20247;-71
2023/08/12 13:05:32;;;;;;;3.27;3.07;;;32.80;28.60;;;;;;10265437;28;20233;-71
2023/08/12 13:10:35;;;;;;;3.10;2.90;;;32.80;28.10;;;;;;10261698;28;20255;-71
2023/08/12 13:15:38;;;;;;;3.20;2.90;;;32.80;27.80;;;;;;10255843;28;20232;-71
2023/08/12 13:20:43;;;;;;;3.23;3.03;;;32.90;27.40;;;;;;10264234;28;20323;-71
2023/08/12 13:25:46;;;;;;;3.20;3.00;;;33.00;26.80;;;;;;10258792;28;20284;-71
2023/08/12 13:30:50;;;;;;;3.03;2.83;;;33.00;27.00;;;;;;10263326;28;20290;-71
2023/08/12 13:35:55;;;;;;;3.67;3.43;;;33.10;27.40;;;;;;10262099;28;20224;-71
2023/08/12 13:40:58;;;;;;;3.43;3.20;;;33.20;26.80;;;;;;10270666;28;20240;-70
2023/08/12 13:46:02;;;;;;;3.40;3.20;;;33.20;27.00;;;;;;10263290;28;20876;-71
2023/08/12 13:51:07;;;;;;;3.30;3.10;;;33.20;26.70;;;;;;10262157;28;20232;-71
2023/08/12 13:56:10;;;;;;;3.20;3.00;;;33.30;26.40;;;;;;10263259;28;20337;-71
2023/08/12 14:01:13;;;;;;;3.00;2.80;;;33.30;26.60;;;;;;10263665;28;20796;-71
2023/08/12 14:06:18;;;;;;;3.07;2.73;;;33.40;25.60;;;;;;10258432;28;21197;-70
2023/08/12 14:11:21;;;;;;;2.83;2.73;;;33.50;25.40;;;;;;10257201;28;20625;-71
2023/08/12 14:16:24;;;;;;;2.70;2.60;;;33.50;25.70;;;;;;10258427;28;20237;-71
2023/08/12 14:21:29;;;;;;;3.00;2.80;;;33.50;25.50;;;;;;10266728;28;20937;-71
2023/08/12 14:26:32;;;;;;;3.00;2.80;;;33.40;24.60;;;;;;10264203;28;20824;-71
2023/08/12 14:31:35;;;;;;;3.73;3.00;;;33.40;25.40;;;;;;10258281;28;20240;-71
2023/08/12 14:36:40;;;;;;;2.73;2.53;;;33.30;25.20;;;;;;10262494;28;20236;-70
2023/08/12 14:41:43;;;;;;;3.13;2.93;;;33.30;25.40;;;;;;10256315;28;20288;-71
2023/08/12 14:46:46;;;;;;;2.87;2.67;;;33.20;25.30;;;;;;10261757;28;20248;-71
2023/08/12 14:51:51;;;;;;;3.10;2.90;;;33.00;25.50;;;;;;10266562;28;20232;-71
2023/08/12 14:56:54;;;;;;;2.80;2.60;;;33.00;25.20;;;;;;10265391;28;20322;-71
2023/08/12 15:01:57;;;;;;;3.50;3.20;;;32.90;25.80;;;;;;10271357;28;20720;-71
2023/08/12 15:07:03;;;;;;;3.07;2.87;;;32.90;25.80;;;;;;10268881;28;20232;-71
2023/08/12 15:12:06;;;;;;;3.47;3.03;;;32.90;25.60;;;;;;10274424;28;20374;-71
2023/08/12 15:17:09;;;;;;;3.00;2.67;;;32.80;25.60;;;;;;10273137;28;20228;-71
2023/08/12 15:22:15;;;;;;;3.20;2.70;;;32.80;25.40;;;;;;10262020;28;21169;-71
2023/08/12 15:27:18;;;;;;;3.00;2.80;;;32.80;25.20;;;;;;10273333;28;20236;-71
2023/08/12 15:32:22;;;;;;;3.20;2.80;;;32.80;25.30;;;;;;10266860;28;20250;-71
2023/08/12 15:37:26;;;;;;;2.87;2.67;;;32.80;25.30;;;;;;10269262;28;20238;-71
2023/08/12 15:42:29;;;;;;;3.00;2.70;;;32.70;25.70;;;;;;10265902;28;20245;-71
2023/08/12 15:47:33;;;;;;;3.33;2.40;;;32.60;25.30;;;;;;10264987;28;20245;-70
2023/08/12 15:52:37;;;;;;;2.83;2.23;;;32.40;25.30;;;;;;10270621;28;20266;-71
2023/08/12 15:57:40;;;;;;;2.57;2.37;;;32.10;25.80;;;;;;10261441;28;20240;-71
2023/08/12 16:02:44;;;;;;;2.53;2.33;;;32.00;25.90;;;;;;10271581;28;20232;-71
2023/08/12 16:07:48;;;;;;;3.20;2.60;;;31.80;26.00;;;;;;10269491;28;20228;-71
2023/08/12 16:12:51;;;;;;;2.40;2.30;;;31.70;26.40;;;;;;10265193;28;20262;-70
2023/08/12 16:17:55;;;;;;;2.57;2.43;;;31.60;26.60;;;;;;10267441;28;20224;-71
2023/08/12 16:22:59;;;;;;;2.70;2.50;;;31.60;26.90;;;;;;10257496;28;20227;-70
2023/08/12 16:28:03;;;;;;;2.90;2.40;;;31.50;26.70;;;;;;10264196;28;20230;-71
2023/08/12 16:33:06;;;;;;;2.50;2.30;;;31.50;26.90;;;;;;10258396;28;20302;-71
2023/08/12 16:38:10;;;;;;;2.30;2.10;;;31.50;26.80;;;;;;10268848;28;20275;-70
2023/08/12 16:43:13;;;;;;;3.43;1.87;;;31.50;26.90;;;;;;10270630;28;20716;-71
2023/08/12 16:48:17;;;;;;;2.80;2.23;;;31.50;26.60;;;;;;10273429;28;20255;-71
2023/08/12 16:53:21;;;;;;;2.83;1.87;;;31.40;26.30;;;;;;10268230;28;20236;-70
2023/08/12 16:58:24;;;;;;;2.20;2.00;;;31.30;26.50;;;;;;10264935;28;20295;-71
2023/08/12 17:03:28;;;;;;;2.43;2.23;;;31.20;26.30;;;;;;10263185;28;20306;-71
2023/08/12 17:08:32;;;;;;;2.13;2.03;;;31.00;26.50;;;;;;10264323;28;20263;-70
2023/08/12 17:13:36;;;;;;;2.30;2.00;;;30.70;26.60;;;;;;10263955;28;20919;-70
2023/08/12 17:18:40;;;;;;;2.63;1.83;;;30.60;26.70;;;;;;10263255;28;20299;-70
2023/08/12 17:23:44;;;;;;;1.80;1.70;;;30.40;26.80;;;;;;10263182;28;20240;-71
2023/08/12 17:28:47;;;;;;;1.90;1.80;;;30.30;26.90;;;;;;10259778;28;20243;-70
2023/08/12 17:33:51;;;;;;;3.40;1.70;;;30.20;27.00;;;;;;10265775;28;20236;-70
2023/08/12 17:38:55;;;;;;;1.90;1.80;;;30.10;27.00;;;;;;10262933;28;20232;-70
2023/08/12 17:43:58;;;;;;;1.80;1.70;;;30.10;27.30;;;;;;10264672;28;20219;-70
2023/08/12 17:49:02;;;;;;;2.47;1.87;;;30.00;27.50;;;;;;10260064;28;20313;-71
2023/08/12 17:54:07;;;;;;;2.47;2.27;;;30.00;27.80;;;;;;10268082;28;20235;-70
2023/08/12 17:59:10;;;;;;;4.07;2.10;;;30.00;28.10;;;;;;10265723;28;20235;-71
2023/08/12 18:04:13;;;;;;;2.63;2.43;;;30.00;28.10;;;;;;10259117;28;20287;-70
2023/08/12 18:09:18;;;;;;;2.10;2.00;;;29.90;28.10;;;;;;10264311;28;20236;-71
2023/08/12 18:14:22;;;;;;;2.00;1.90;;;29.90;28.40;;;;;;10260493;28;20236;-70
2023/08/12 18:19:25;;;;;;;1.90;1.80;;;29.80;28.40;;;;;;10265108;28;20241;-70
2023/08/12 18:24:30;;;;;;;1.93;1.83;;;29.70;28.40;;;;;;10275305;28;20249;-70
2023/08/12 18:29:33;;;;;;;2.40;1.90;;;29.60;28.60;;;;;;10272560;28;20330;-70
2023/08/12 18:34:36;;;;;;;2.10;1.90;;;29.40;28.30;;;;;;10275965;28;20739;-71
2023/08/12 18:39:41;;;;;;;3.80;1.80;;;29.40;28.70;;;;;;10273786;28;20235;-70
2023/08/12 18:44:44;;;;;;;1.80;1.70;;;29.20;29.20;;;;;;10269669;28;20271;-70
2023/08/12 18:49:47;;;;;;;3.00;2.00;;;29.20;29.20;;;;;;10273534;28;20286;-70
2023/08/12 18:54:52;;;;;;;2.30;2.03;;;29.00;29.10;;;;;;10273937;28;20236;-71
2023/08/12 18:59:55;;;;;;;2.20;1.80;;;29.00;29.40;;;;;;10271731;28;20314;-70
2023/08/12 19:04:58;;;;;;;2.37;2.20;;;28.90;29.30;;;;;;10270691;28;20240;-71
2023/08/12 19:10:03;;;;;;;10.30;2.80;;;28.70;29.50;;;;;;10280880;28;20232;-71
2023/08/12 19:15:08;;;;;;;7.67;2.90;;;28.40;30.20;;;;;;10269494;28;20239;-70
2023/08/12 19:20:11;;;;;;;6.50;2.90;;;28.10;30.30;;;;;;10270910;28;20242;-70
2023/08/12 19:25:16;;;;;;;15.87;2.77;;;27.80;30.10;;;;;;10273951;28;20240;-70
2023/08/12 19:30:20;;;;;;;4.87;2.23;;;27.60;30.90;;;;;;10270971;28;20322;-70
2023/08/12 19:35:23;;;;;;;2.50;2.10;;;27.50;30.90;;;;;;10262096;28;20240;-72
2023/08/12 19:40:29;;;;;;;4.13;2.20;;;27.40;31.10;;;;;;10268250;28;20235;-70
2023/08/12 19:45:32;;;;;;;4.27;2.60;;;27.40;31.60;;;;;;10267812;28;20232;-70
2023/08/12 19:50:36;;;;;;;2.83;2.30;;;27.40;31.30;;;;;;10265561;28;20965;-70
2023/08/12 19:55:41;;;;;;;2.83;2.57;;;27.20;31.40;;;;;;10261168;28;20236;-70
2023/08/12 20:00:44;;;;;;;5.60;2.50;;;27.10;31.90;;;;;;10260275;28;20235;-70
2023/08/12 20:05:47;;;;;;;2.30;2.10;;;26.90;31.70;;;;;;10268714;28;20791;-71
2023/08/12 20:10:54;;;;;;;2.30;2.10;;;26.70;32.00;;;;;;10262734;28;20231;-70
2023/08/12 20:15:59;;;;;;;2.90;2.57;;;26.60;33.30;;;;;;10269595;28;20224;-70
2023/08/12 20:21:02;;;;;;;5.03;2.70;;;26.50;32.60;;;;;;10264683;28;20331;-70
2023/08/12 20:26:09;;;;;;;6.70;3.03;;;26.40;32.90;;;;;;10268010;28;20237;-70
2023/08/12 20:31:12;;;;;;;5.43;2.60;;;26.30;33.70;;;;;;10267096;28;20806;-70
2023/08/12 20:36:15;;;;;;;6.43;3.03;;;26.20;33.40;;;;;;10266492;28;20295;-70
2023/08/12 20:41:23;;;;;;;5.10;3.03;;;26.10;34.00;;;;;;10260497;28;20330;-70
2023/08/12 20:46:26;;;;;;;8.00;2.90;;;26.10;34.40;;;;;;10264870;28;20236;-70
2023/08/12 20:51:30;;;;;;;4.80;3.20;;;26.10;34.20;;;;;;10261750;28;20327;-70
2023/08/12 20:56:35;;;;;;;3.83;3.17;;;26.20;34.40;;;;;;10263211;28;20260;-71
2023/08/12 21:01:38;;;;;;;7.40;2.80;;;26.20;35.00;;;;;;10264079;28;20243;-71
2023/08/12 21:06:41;;;;;;;3.23;2.80;;;26.20;34.50;;;;;;10259485;28;20228;-70
2023/08/12 21:11:46;;;;;;;4.10;2.93;;;26.20;34.30;;;;;;10262230;28;20248;-70
2023/08/12 21:16:49;;;;;;;6.43;3.50;;;26.10;34.80;;;;;;10262208;28;20240;-70
2023/08/12 21:21:52;;;;;;;7.63;3.20;;;26.10;34.60;;;;;;10263291;28;20322;-70
2023/08/12 21:26:57;;;;;;;3.33;3.03;;;26.00;34.80;;;;;;10258340;28;20235;-70
2023/08/12 21:32:00;;;;;;;2.73;2.53;;;25.90;35.50;;;;;;10261102;28;20708;-70
2023/08/12 21:37:03;;;;;;;2.73;2.53;;;25.90;35.10;;;;;;10265295;28;20302;-70
2023/08/12 21:42:08;;;;;;;2.60;2.43;;;25.80;35.20;;;;;;10260864;28;20267;-71
2023/08/12 21:47:12;;;;;;;2.80;2.60;;;25.70;35.90;;;;;;10258008;28;20646;-70
2023/08/12 21:52:15;;;;;;;2.53;2.33;;;25.60;35.50;;;;;;10268988;28;20254;-70
2023/08/12 21:57:20;;;;;;;3.27;2.43;;;25.60;35.60;;;;;;10252454;28;20240;-70
2023/08/12 22:02:24;;;;;;;2.67;2.20;;;25.50;36.30;;;;;;10263501;28;20668;-70
2023/08/12 22:07:27;;;;;;;3.70;2.57;;;25.50;35.90;;;;;;10267816;28;20227;-70
2023/08/12 22:12:32;;;;;;;4.00;2.57;;;25.50;36.00;;;;;;10256538;28;20329;-70
2023/08/12 22:17:36;;;;;;;2.83;2.33;;;25.40;36.50;;;;;;10261072;28;20232;-70
2023/08/12 22:22:39;;;;;;;3.23;2.43;;;25.40;36.00;;;;;;10262417;28;20384;-70
2023/08/12 22:27:44;;;;;;;2.60;2.23;;;25.40;36.10;;;;;;10260506;28;20904;-70
2023/08/12 22:32:47;;;;;;;2.80;2.30;;;25.30;36.60;;;;;;10257577;28;20807;-70
2023/08/12 22:37:50;;;;;;;3.13;2.50;;;25.20;36.40;;;;;;10257839;28;20236;-70
2023/08/12 22:42:55;;;;;;;4.13;2.60;;;25.00;36.70;;;;;;10265633;28;20232;-70
2023/08/12 22:47:58;;;;;;;2.50;2.30;;;24.90;37.40;;;;;;10261464;28;20318;-70
2023/08/12 22:53:01;;;;;;;3.73;2.30;;;24.70;37.00;;;;;;10260033;28;20254;-70
2023/08/12 22:58:06;;;;;;;2.80;2.57;;;24.60;37.20;;;;;;10260426;28;20232;-70
2023/08/12 23:03:09;;;;;;;3.13;2.83;;;24.50;38.00;;;;;;10263941;28;20275;-70
2023/08/12 23:08:12;;;;;;;3.83;2.70;;;24.50;37.70;;;;;;10262862;28;20227;-70
2023/08/12 23:13:17;;;;;;;2.97;2.70;;;24.50;37.60;;;;;;10268813;28;20263;-71
2023/08/12 23:18:20;;;;;;;3.10;2.57;;;24.50;38.20;;;;;;10267142;28;20990;-70
2023/08/12 23:23:23;;;;;;;2.87;2.67;;;24.50;37.70;;;;;;10264659;28;20239;-70
2023/08/12 23:28:28;;;;;;;5.03;3.00;;;24.30;37.80;;;;;;10272761;28;20284;-70
2023/08/12 23:33:31;;;;;;;2.90;2.70;;;24.10;38.50;;;;;;10264069;28;20231;-70
2023/08/12 23:38:36;;;;;;;5.00;3.00;;;24.00;38.30;;;;;;10265105;28;20240;-70
2023/08/12 23:43:40;;;;;;;3.53;2.90;;;23.90;38.40;;;;;;10266382;28;20239;-70
2023/08/12 23:48:44;;;;;;;3.53;2.70;;;23.90;39.20;;;;;;10261527;28;20244;-70
2023/08/12 23:53:47;;;;;;;2.70;2.50;;;23.90;38.70;;;;;;10260632;28;20256;-70
2023/08/12 23:58:51;;;;;;;2.80;2.60;;;23.90;38.50;;;;;;10268572;28;20271;-70
